createdAt,value
2022-08-11T00:00:16.237Z,2.50
2022-08-11T00:02:51.515Z,2.77
2022-08-11T00:05:22.705Z,2.90
2022-08-11T00:07:55.213Z,3.00
2022-08-11T00:10:27.282Z,2.70
2022-08-11T00:13:03.985Z,3.03
2022-08-11T00:15:46.214Z,2.90
2022-08-11T00:18:19.544Z,2.73
2022-08-11T00:20:49.277Z,2.97
2022-08-11T00:23:21.030Z,3.00
2022-08-11T00:25:52.949Z,3.00
2022-08-11T00:28:31.113Z,3.40
2022-08-11T00:31:06.739Z,2.80
2022-08-11T00:33:41.304Z,3.10
2022-08-11T00:36:22.040Z,3.07
2022-08-11T00:38:55.701Z,2.73
2022-08-11T00:41:38.081Z,2.57
2022-08-11T00:44:29.735Z,2.83
2022-08-11T00:47:19.339Z,2.80
2022-08-11T00:50:05.063Z,2.93
2022-08-11T00:52:55.936Z,2.87
2022-08-11T00:56:24.718Z,3.33
2022-08-11T00:59:38.238Z,2.93
2022-08-11T01:02:21.476Z,2.77
2022-08-11T01:05:41.391Z,2.83
2022-08-11T01:08:56.261Z,2.77
2022-08-11T01:12:12.582Z,3.10
2022-08-11T01:15:21.019Z,2.77
2022-08-11T01:18:37.444Z,2.87
2022-08-11T01:22:13.454Z,2.83
2022-08-11T01:25:56.903Z,3.20
2022-08-11T01:29:34.566Z,3.47
2022-08-11T01:32:57.969Z,2.87
2022-08-11T01:36:07.747Z,2.63
2022-08-11T01:39:43.307Z,3.00
2022-08-11T01:43:28.588Z,3.33
2022-08-11T01:46:06.257Z,2.90
2022-08-11T01:48:43.657Z,3.10
2022-08-11T01:51:34.701Z,3.10
2022-08-11T01:54:14.701Z,3.10
2022-08-11T01:57:09.339Z,3.57
2022-08-11T01:59:48.758Z,3.13
2022-08-11T02:02:54.220Z,3.03
2022-08-11T02:05:37.662Z,2.60
2022-08-11T02:08:33.303Z,2.83
2022-08-11T02:11:35.782Z,2.77
2022-08-11T02:14:23.486Z,3.07
2022-08-11T02:17:18.704Z,2.63
2022-08-11T02:20:19.577Z,3.50
2022-08-11T02:23:42.697Z,2.83
2022-08-11T02:26:17.305Z,3.10
2022-08-11T02:28:58.621Z,3.07
2022-08-11T02:32:24.222Z,2.57
2022-08-11T02:35:00.634Z,2.90
2022-08-11T02:37:45.228Z,2.67
2022-08-11T02:40:26.067Z,2.90
2022-08-11T02:43:12.270Z,3.20
2022-08-11T02:46:02.667Z,2.90
2022-08-11T02:49:14.931Z,3.53
2022-08-11T02:52:06.157Z,3.50
2022-08-11T02:54:48.362Z,2.90
2022-08-11T02:57:28.859Z,3.30
2022-08-11T03:00:09.018Z,3.00
2022-08-11T03:02:54.240Z,3.03
2022-08-11T03:05:57.938Z,3.00
2022-08-11T03:08:51.259Z,3.43
2022-08-11T03:12:04.247Z,3.30
2022-08-11T03:15:05.540Z,3.60
2022-08-11T03:17:48.350Z,3.83
2022-08-11T03:20:33.342Z,3.30
2022-08-11T03:23:20.615Z,3.67
2022-08-11T03:25:58.573Z,3.53
2022-08-11T03:28:35.110Z,3.83
2022-08-11T03:31:24.814Z,3.70
2022-08-11T03:34:06.751Z,3.30
2022-08-11T03:37:50.420Z,3.60
2022-08-11T03:40:59.725Z,3.77
2022-08-11T03:43:58.377Z,3.73
2022-08-11T03:46:45.286Z,3.43
2022-08-11T03:49:36.175Z,3.27
2022-08-11T03:52:23.231Z,3.33
2022-08-11T03:55:05.433Z,4.13
2022-08-11T03:58:26.579Z,3.73
2022-08-11T04:01:49.361Z,3.40
2022-08-11T04:05:08.475Z,3.27
2022-08-11T04:08:34.174Z,3.67
2022-08-11T04:11:50.266Z,3.53
2022-08-11T04:15:23.509Z,4.00
2022-08-11T04:18:35.192Z,4.17
2022-08-11T04:21:37.878Z,4.10
2022-08-11T04:24:50.725Z,4.13
2022-08-11T04:27:54.527Z,4.03
2022-08-11T04:30:42.156Z,3.90
2022-08-11T04:34:06.706Z,4.17
2022-08-11T04:37:34.596Z,4.43
2022-08-11T04:40:49.926Z,4.13
2022-08-11T04:44:11.273Z,3.77
2022-08-11T04:48:01.475Z,4.17
2022-08-11T04:51:10.140Z,3.63
2022-08-11T04:54:27.857Z,3.50
2022-08-11T04:57:24.035Z,3.53
2022-08-11T05:00:24.524Z,3.30
2022-08-11T05:03:44.079Z,3.50
2022-08-11T05:07:08.300Z,3.10
2022-08-11T05:10:05.032Z,4.03
2022-08-11T05:12:44.350Z,3.57
2022-08-11T05:15:42.529Z,3.20
2022-08-11T05:18:38.417Z,3.50
2022-08-11T05:21:44.790Z,3.37
2022-08-11T05:24:41.281Z,3.40
2022-08-11T05:27:33.180Z,3.10
2022-08-11T05:30:24.269Z,3.17
2022-08-11T05:33:18.929Z,3.47
2022-08-11T05:36:01.568Z,2.93
2022-08-11T05:38:53.341Z,3.37
2022-08-11T05:41:43.916Z,3.20
2022-08-11T05:44:40.014Z,3.10
2022-08-11T05:47:27.378Z,3.43
2022-08-11T05:50:15.314Z,2.90
2022-08-11T05:53:09.158Z,3.07
2022-08-11T05:56:03.253Z,3.03
2022-08-11T05:58:41.347Z,2.87
2022-08-11T06:01:14.242Z,3.30
2022-08-11T06:04:04.613Z,2.90
2022-08-11T06:06:33.778Z,2.90
2022-08-11T06:09:03.065Z,2.90
2022-08-11T06:11:44.424Z,2.97
2022-08-11T06:14:15.578Z,2.97
2022-08-11T06:16:50.901Z,3.27
2022-08-11T06:19:24.507Z,3.00
2022-08-11T06:21:54.206Z,2.40
2022-08-11T06:24:23.030Z,3.10
2022-08-11T06:27:11.632Z,2.83
2022-08-11T06:29:54.849Z,2.97
2022-08-11T06:32:28.297Z,2.73
2022-08-11T06:35:17.638Z,2.53
2022-08-11T06:38:06.321Z,2.83
2022-08-11T06:41:07.663Z,2.63
2022-08-11T06:43:55.386Z,2.87
2022-08-11T06:46:32.124Z,2.60
2022-08-11T06:49:03.810Z,2.73
2022-08-11T06:51:34.385Z,2.53
2022-08-11T06:54:05.519Z,2.30
2022-08-11T06:57:26.462Z,2.27
2022-08-11T07:00:18.268Z,2.33
2022-08-11T07:02:54.296Z,2.37
2022-08-11T07:05:29.978Z,2.37
2022-08-11T07:09:13.810Z,2.53
2022-08-11T07:12:29.461Z,2.77
2022-08-11T07:15:16.897Z,2.60
2022-08-11T07:18:10.445Z,2.20
2022-08-11T07:21:02.389Z,2.03
2022-08-11T07:23:55.007Z,2.50
2022-08-11T07:26:45.974Z,2.20
2022-08-11T07:29:16.578Z,2.30
2022-08-11T07:31:52.178Z,1.90
2022-08-11T07:34:27.888Z,2.17
2022-08-11T07:37:00.833Z,2.20
2022-08-11T07:39:34.303Z,1.80
2022-08-11T07:42:08.593Z,2.10
2022-08-11T07:44:58.668Z,2.00
2022-08-11T07:47:45.863Z,1.97
2022-08-11T07:50:32.989Z,1.90
2022-08-11T07:53:04.440Z,1.80
2022-08-11T07:55:50.750Z,1.77
2022-08-11T07:58:45.678Z,2.23
2022-08-11T08:01:42.326Z,1.90
2022-08-11T08:04:33.392Z,1.70
2022-08-11T08:07:22.965Z,1.70
2022-08-11T08:10:15.861Z,1.75
2022-08-11T08:13:03.275Z,1.57
2022-08-11T08:15:50.405Z,1.73
2022-08-11T08:18:26.814Z,1.60
2022-08-11T08:21:13.514Z,1.47
2022-08-11T08:23:44.659Z,2.25
2022-08-11T08:26:35.798Z,1.40
2022-08-11T08:29:25.820Z,1.58
2022-08-11T08:31:56.623Z,1.70
2022-08-11T08:34:26.659Z,1.40
2022-08-11T08:36:55.555Z,1.50
2022-08-11T08:39:24.464Z,1.40
2022-08-11T08:41:58.133Z,1.58
2022-08-11T08:44:38.306Z,1.30
2022-08-11T08:47:13.696Z,1.25
2022-08-11T08:49:49.543Z,1.42
2022-08-11T08:52:39.461Z,1.35
2022-08-11T08:55:13.774Z,1.10
2022-08-11T08:57:47.134Z,1.50
2022-08-11T09:00:20.908Z,1.30
2022-08-11T09:02:53.364Z,1.40
2022-08-11T09:05:23.367Z,1.60
2022-08-11T09:07:57.717Z,1.48
2022-08-11T09:10:27.377Z,1.10
2022-08-11T09:12:57.650Z,1.20
2022-08-11T09:15:26.119Z,1.30
2022-08-11T09:18:03.664Z,1.25
2022-08-11T09:20:35.486Z,1.42
2022-08-11T09:26:33.135Z,1.38
2022-08-11T09:29:04.610Z,1.00
2022-08-11T09:31:39.813Z,1.40
2022-08-11T09:34:10.754Z,1.30
2022-08-11T09:36:59.932Z,1.52
2022-08-11T09:39:48.244Z,1.20
2022-08-11T09:42:23.475Z,1.38
2022-08-11T09:44:54.034Z,1.48
2022-08-11T09:47:26.471Z,1.58
2022-08-11T09:50:01.292Z,1.30
2022-08-11T09:52:36.745Z,1.33
2022-08-11T09:55:11.299Z,1.23
2022-08-11T09:57:59.488Z,1.48
2022-08-11T10:00:37.235Z,1.15
2022-08-11T10:03:11.145Z,1.20
2022-08-11T10:05:58.264Z,1.48
2022-08-11T10:08:33.184Z,1.27
2022-08-11T10:11:02.848Z,1.10
2022-08-11T10:14:31.820Z,1.40
2022-08-11T10:16:28.109Z,1.15
2022-08-11T10:18:59.624Z,1.00
2022-08-11T10:21:37.031Z,1.42
2022-08-11T10:30:14.409Z,1.20
2022-08-11T10:33:02.555Z,1.17
2022-08-11T10:35:36.680Z,1.33
2022-08-11T10:38:09.674Z,1.25
2022-08-11T10:40:41.704Z,1.10
2022-08-11T10:43:13.971Z,1.05
2022-08-11T10:46:04.825Z,1.45
2022-08-11T10:48:41.469Z,1.02
2022-08-11T10:51:15.295Z,1.10
2022-08-11T10:54:07.361Z,1.17
2022-08-11T10:56:58.949Z,1.00
2022-08-11T10:59:31.009Z,1.10
2022-08-11T11:02:02.015Z,1.10
2022-08-11T11:04:59.346Z,1.27
2022-08-11T11:07:44.008Z,1.10
2022-08-11T11:10:12.798Z,1.23
2022-08-11T11:13:03.630Z,1.05
2022-08-11T11:15:53.159Z,0.70
2022-08-11T11:18:26.235Z,1.10
2022-08-11T11:21:04.868Z,0.80
2022-08-11T11:23:41.577Z,1.10
2022-08-11T11:26:34.717Z,1.10
2022-08-11T11:29:27.428Z,1.10
2022-08-11T11:32:17.463Z,1.00
2022-08-11T11:35:10.932Z,1.30
2022-08-11T11:38:04.459Z,1.10
2022-08-11T11:40:32.311Z,1.15
2022-08-11T11:43:02.378Z,1.20
2022-08-11T11:45:31.225Z,1.20
2022-08-11T11:48:01.999Z,1.35
2022-08-11T11:50:34.723Z,2.03
2022-08-11T11:53:11.823Z,1.20
2022-08-11T11:55:41.282Z,1.20
2022-08-11T11:58:27.350Z,1.17
2022-08-11T12:01:15.423Z,1.23
2022-08-11T12:03:47.747Z,1.20
2022-08-11T12:06:18.111Z,2.80
2022-08-11T12:08:51.685Z,1.27
2022-08-11T12:11:41.128Z,1.23
2022-08-11T12:14:13.503Z,2.15
2022-08-11T12:16:44.857Z,1.10
2022-08-11T12:19:16.875Z,1.10
2022-08-11T12:22:04.592Z,1.00
2022-08-11T12:24:54.925Z,1.27
2022-08-11T12:27:25.335Z,1.13
2022-08-11T12:30:09.531Z,0.95
2022-08-11T12:32:41.578Z,1.13
2022-08-11T12:35:11.350Z,1.30
2022-08-11T12:37:43.631Z,1.13
2022-08-11T12:40:43.446Z,1.33
2022-08-11T12:43:56.419Z,1.98
2022-08-11T12:46:32.607Z,1.50
2022-08-11T12:49:25.678Z,1.10
2022-08-11T12:52:10.954Z,1.38
2022-08-11T12:55:00.295Z,1.17
2022-08-11T12:57:55.101Z,1.08
2022-08-11T13:00:43.309Z,1.20
2022-08-11T13:03:32.726Z,1.15
2022-08-11T13:06:04.848Z,1.10
2022-08-11T13:08:38.073Z,0.93
2022-08-11T13:11:25.163Z,1.08
2022-08-11T13:14:16.893Z,1.30
2022-08-11T13:17:04.755Z,1.17
2022-08-11T13:19:34.478Z,1.10
2022-08-11T13:22:07.259Z,1.40
2022-08-11T13:24:39.935Z,1.08
2022-08-11T13:27:09.005Z,1.48
2022-08-11T13:29:42.632Z,1.40
2022-08-11T13:32:11.892Z,1.40
2022-08-11T13:34:42.809Z,1.13
2022-08-11T13:37:14.435Z,1.17
2022-08-11T13:39:47.276Z,0.88
2022-08-11T13:42:20.180Z,1.13
2022-08-11T13:44:50.848Z,1.08
2022-08-11T13:47:23.585Z,0.90
2022-08-11T13:49:52.674Z,0.98
2022-08-11T13:52:21.579Z,1.10
2022-08-11T13:54:53.222Z,1.27
2022-08-11T13:58:17.667Z,1.33
2022-08-11T14:00:26.857Z,1.00
2022-08-11T14:02:59.176Z,1.10
2022-08-11T14:05:33.464Z,1.20
2022-08-11T14:08:08.843Z,1.00
2022-08-11T14:12:20.020Z,1.10
2022-08-11T14:14:12.432Z,1.20
2022-08-11T14:16:45.842Z,1.20
2022-08-11T14:19:18.526Z,1.10
2022-08-11T14:22:07.846Z,1.23
2022-08-11T14:24:39.945Z,1.05
2022-08-11T14:28:32.696Z,1.02
2022-08-11T14:30:00.803Z,1.25
2022-08-11T14:32:30.864Z,1.30
2022-08-11T14:35:01.328Z,1.10
2022-08-11T14:37:30.477Z,1.00
2022-08-11T14:40:22.112Z,1.20
2022-08-11T14:43:08.103Z,1.30
2022-08-11T14:45:57.581Z,0.95
2022-08-11T14:48:28.572Z,1.10
2022-08-11T14:50:58.430Z,1.38
2022-08-11T14:53:27.386Z,0.95
2022-08-11T14:56:14.195Z,1.45
2022-08-11T14:58:44.719Z,1.10
2022-08-11T15:01:28.124Z,0.95
2022-08-11T15:04:34.203Z,1.30
2022-08-11T15:06:48.981Z,1.17
2022-08-11T15:09:18.467Z,1.10
2022-08-11T15:12:04.564Z,1.15
2022-08-11T15:14:56.132Z,1.50
2022-08-11T15:17:42.757Z,1.20
2022-08-11T15:20:36.517Z,2.70
2022-08-11T15:23:23.708Z,1.15
2022-08-11T15:25:57.786Z,1.38
2022-08-11T15:28:46.936Z,1.17
2022-08-11T15:31:35.781Z,1.02
2022-08-11T15:34:24.775Z,1.27
2022-08-11T15:37:21.309Z,4.57
2022-08-11T15:40:31.789Z,1.70
2022-08-11T15:43:29.204Z,1.20
2022-08-11T15:46:03.142Z,1.30
2022-08-11T15:48:43.784Z,1.40
2022-08-11T15:51:25.293Z,1.13
2022-08-11T15:54:00.270Z,1.27
2022-08-11T15:56:33.792Z,1.15
2022-08-11T15:59:41.852Z,1.30
2022-08-11T16:02:33.829Z,1.75
2022-08-11T16:05:08.102Z,1.83
2022-08-11T16:07:40.609Z,1.63
2022-08-11T16:10:21.574Z,1.52
2022-08-11T16:13:18.061Z,1.55
2022-08-11T16:16:09.928Z,1.20
2022-08-11T16:18:47.094Z,1.40
2022-08-11T16:21:34.230Z,1.63
2022-08-11T16:24:07.669Z,1.38
2022-08-11T16:27:08.760Z,1.50
2022-08-11T16:29:33.112Z,1.40
2022-08-11T16:32:20.343Z,1.50
2022-08-11T16:35:12.848Z,1.60
2022-08-11T16:38:00.900Z,1.40
2022-08-11T16:40:31.761Z,1.80
2022-08-11T16:43:22.091Z,1.60
2022-08-11T16:46:08.949Z,1.70
2022-08-11T16:48:41.265Z,1.55
2022-08-11T16:51:16.141Z,1.85
2022-08-11T16:54:04.593Z,1.48
2022-08-11T16:56:39.488Z,1.60
2022-08-11T16:59:20.954Z,1.60
2022-08-11T17:01:55.178Z,1.80
2022-08-11T17:04:55.074Z,1.30
2022-08-11T17:07:43.594Z,1.58
2022-08-11T17:10:52.303Z,1.30
2022-08-11T17:13:36.219Z,1.40
2022-08-11T17:16:12.817Z,1.80
2022-08-11T17:18:57.236Z,1.40
2022-08-11T17:21:33.740Z,1.63
2022-08-11T17:24:09.225Z,1.60
2022-08-11T17:26:58.296Z,1.40
2022-08-11T17:29:33.246Z,1.88
2022-08-11T17:32:23.093Z,1.52
2022-08-11T17:35:15.150Z,1.65
2022-08-11T17:37:45.457Z,1.60
2022-08-11T17:40:21.445Z,2.00
2022-08-11T17:43:09.064Z,1.50
2022-08-11T17:45:55.891Z,1.60
2022-08-11T17:48:29.268Z,1.77
2022-08-11T17:51:01.182Z,1.50
2022-08-11T17:54:17.031Z,1.67
2022-08-11T17:56:57.793Z,1.63
2022-08-11T17:59:49.272Z,1.97
2022-08-11T18:02:38.331Z,1.90
2022-08-11T18:05:13.503Z,2.00
2022-08-11T18:08:01.558Z,1.40
2022-08-11T18:10:50.963Z,1.43
2022-08-11T18:13:39.809Z,1.40
2022-08-11T18:16:26.527Z,1.80
2022-08-11T18:19:13.056Z,1.70
2022-08-11T18:22:14.422Z,1.70
2022-08-11T18:25:07.333Z,2.10
2022-08-11T18:27:56.973Z,1.60
2022-08-11T18:30:44.457Z,1.60
2022-08-11T18:33:50.938Z,2.03
2022-08-11T18:36:46.292Z,1.50
2022-08-11T18:39:35.577Z,1.50
2022-08-11T18:42:33.187Z,1.90
2022-08-11T18:45:26.210Z,1.97
2022-08-11T18:48:22.219Z,1.70
2022-08-11T18:51:30.518Z,1.50
2022-08-11T18:54:27.221Z,1.93
2022-08-11T18:57:19.842Z,1.70
2022-08-11T19:00:16.319Z,1.80
2022-08-11T19:03:03.914Z,1.80
2022-08-11T19:06:37.127Z,1.80
2022-08-11T19:09:07.264Z,2.17
2022-08-11T19:11:56.561Z,2.30
2022-08-11T19:14:53.309Z,2.67
2022-08-11T19:17:45.953Z,2.23
2022-08-11T19:20:38.213Z,2.40
2022-08-11T19:23:28.528Z,1.90
2022-08-11T19:26:16.726Z,2.43
2022-08-11T19:29:07.473Z,2.40
2022-08-11T19:31:56.562Z,2.70
2022-08-11T19:34:47.821Z,2.73
2022-08-11T19:37:34.787Z,2.67
2022-08-11T19:40:31.341Z,3.27
2022-08-11T19:43:25.771Z,2.33
2022-08-11T19:46:15.725Z,2.47
2022-08-11T19:49:07.150Z,3.20
2022-08-11T19:51:55.178Z,2.90
2022-08-11T19:54:46.309Z,2.93
2022-08-11T19:57:37.328Z,2.50
2022-08-11T20:00:32.356Z,2.60
2022-08-11T20:03:20.157Z,2.80
2022-08-11T20:06:13.713Z,3.07
2022-08-11T20:09:03.963Z,2.70
2022-08-11T20:11:56.151Z,2.67
2022-08-11T20:14:48.948Z,2.83
2022-08-11T20:17:36.819Z,4.00
2022-08-11T20:20:28.485Z,4.03
2022-08-11T20:23:22.769Z,3.03
2022-08-11T20:26:29.598Z,3.77
2022-08-11T20:29:18.730Z,3.00
2022-08-11T20:32:06.592Z,3.43
2022-08-11T20:34:58.182Z,3.73
2022-08-11T20:37:50.841Z,3.83
2022-08-11T20:40:44.131Z,3.50
2022-08-11T20:44:08.454Z,3.40
2022-08-11T20:46:41.477Z,3.43
2022-08-11T20:49:44.358Z,2.97
2022-08-11T20:52:37.859Z,3.63
2022-08-11T20:59:11.212Z,2.90
2022-08-11T21:01:44.396Z,3.40
2022-08-11T21:04:30.271Z,3.87
2022-08-11T21:07:28.365Z,2.80
2022-08-11T21:10:23.744Z,3.00
2022-08-11T21:13:24.316Z,3.07
2022-08-11T21:16:25.438Z,3.43
2022-08-11T21:20:01.819Z,3.87
2022-08-11T21:22:35.733Z,3.30
2022-08-11T21:25:28.246Z,3.00
2022-08-11T21:28:23.212Z,3.17
2022-08-11T21:31:12.118Z,2.27
2022-08-11T21:33:59.979Z,2.70
2022-08-11T21:36:47.448Z,2.93
2022-08-11T21:39:38.507Z,2.70
2022-08-11T21:42:26.430Z,2.57
2022-08-11T21:45:16.057Z,2.50
2022-08-11T21:48:05.005Z,2.50
2022-08-11T21:50:52.234Z,2.70
2022-08-11T21:53:40.170Z,3.13
2022-08-11T21:56:29.370Z,2.40
2022-08-11T21:59:18.063Z,2.40
2022-08-11T22:02:11.870Z,2.67
2022-08-11T22:04:59.041Z,2.40
2022-08-11T22:07:47.304Z,2.37
2022-08-11T22:10:41.944Z,2.23
2022-08-11T22:13:30.527Z,1.80
2022-08-11T22:16:17.266Z,2.33
2022-08-11T22:19:05.261Z,2.00
2022-08-11T22:22:01.006Z,1.90
2022-08-11T22:24:54.342Z,2.50
2022-08-11T22:27:41.694Z,2.40
2022-08-11T22:30:31.286Z,2.83
2022-08-11T22:33:27.006Z,2.00
2022-08-11T22:36:16.734Z,2.50
2022-08-11T22:39:05.652Z,2.23
2022-08-11T22:41:53.361Z,2.40
2022-08-11T22:44:39.093Z,2.20
2022-08-11T22:47:38.356Z,2.40
2022-08-11T22:50:31.139Z,2.27
2022-08-11T22:53:19.360Z,2.13
2022-08-11T22:56:06.849Z,2.20
2022-08-11T22:58:54.876Z,2.20
2022-08-11T23:01:55.339Z,2.10
2022-08-11T23:04:44.862Z,2.10
2022-08-11T23:07:51.431Z,2.20
2022-08-11T23:10:38.799Z,2.10
2022-08-11T23:13:26.782Z,1.90
2022-08-11T23:16:16.482Z,1.60
2022-08-11T23:19:04.692Z,2.00
2022-08-11T23:21:52.735Z,2.17
2022-08-11T23:24:40.162Z,2.10
2022-08-11T23:27:28.200Z,2.03
2022-08-11T23:30:18.941Z,2.73
2022-08-11T23:33:11.021Z,2.10
2022-08-11T23:36:05.342Z,2.30
2022-08-11T23:38:52.367Z,2.33
2022-08-11T23:41:39.060Z,2.10
2022-08-11T23:44:27.046Z,2.20
2022-08-11T23:47:18.535Z,1.97
2022-08-11T23:50:06.782Z,2.00
2022-08-11T23:52:53.361Z,2.20
2022-08-11T23:55:39.903Z,2.10
2022-08-11T23:58:26.987Z,2.20
